Time;durP1;ratioP1;P1;durP2;ratioP2;P2;SDS_P1;SDS_P2;PMS_P1;PMS_P2;Temp;Humidity;BMP_temperature;BMP_pressure;BME280_temperature;BME280_humidity;BME280_pressure;Samples;Min_cycle;Max_cycle;Signal;HPM_P1;HPM_P2
2022/08/17 00:01:25;;;;;;;14.20;10.40;;;25.60;59.90;;;;;;5045060;28;20048;-65
2022/08/17 00:03:52;;;;;;;13.55;9.43;;;25.60;59.80;;;;;;5014465;28;20045;-65
2022/08/17 00:06:19;;;;;;;13.68;10.15;;;25.60;59.80;;;;;;5011258;28;20026;-65
2022/08/17 00:08:47;;;;;;;13.65;9.80;;;25.60;59.70;;;;;;5029271;28;20030;-65
2022/08/17 00:11:22;;;;;;;12.85;10.20;;;25.60;59.70;;;;;;5029023;28;20354;-65
2022/08/17 00:13:51;;;;;;;10.80;9.45;;;25.60;59.70;;;;;;5023054;28;20188;-65
2022/08/17 00:16:22;;;;;;;12.15;10.00;;;25.50;59.60;;;;;;5020943;28;20095;-65
2022/08/17 00:18:49;;;;;;;;;;;25.60;59.70;;;;;;5015551;28;20344;-64
2022/08/17 00:21:16;;;;;;;14.95;9.68;;;25.60;59.70;;;;;;5028463;28;19910;-65
2022/08/17 00:23:43;;;;;;;12.93;10.75;;;25.50;59.70;;;;;;5013814;28;20029;-65
2022/08/17 00:26:09;;;;;;;12.43;11.13;;;25.50;59.70;;;;;;5015517;28;20416;-65
2022/08/17 00:28:36;;;;;;;15.23;11.10;;;25.50;59.70;;;;;;5027797;28;20026;-65
2022/08/17 00:31:02;;;;;;;12.23;10.93;;;25.50;59.70;;;;;;5017044;28;20033;-65
2022/08/17 00:33:30;;;;;;;15.02;11.35;;;25.50;59.90;;;;;;5031544;28;20036;-65
2022/08/17 00:35:57;;;;;;;14.15;10.85;;;25.50;59.90;;;;;;5019953;28;20030;-65
2022/08/17 00:38:24;;;;;;;13.52;11.60;;;25.50;60.00;;;;;;5009203;28;20022;-65
2022/08/17 00:40:54;;;;;;;12.02;10.32;;;25.50;60.00;;;;;;5020910;28;20033;-64
2022/08/17 00:43:32;;;;;;;13.07;11.20;;;25.40;60.10;;;;;;5032326;28;20331;-64
2022/08/17 00:46:00;;;;;;;15.40;11.88;;;25.40;60.10;;;;;;5013869;28;20363;-65
2022/08/17 00:48:27;;;;;;;15.68;12.73;;;25.40;60.20;;;;;;5032593;28;20026;-65
2022/08/17 00:50:59;;;;;;;14.55;10.93;;;25.40;60.30;;;;;;5025693;28;20405;-65
2022/08/17 00:53:28;;;;;;;13.90;11.90;;;25.40;60.40;;;;;;5030608;28;20029;-65
2022/08/17 00:55:54;;;;;;;13.85;11.93;;;25.30;60.50;;;;;;5017005;28;20048;-65
2022/08/17 00:58:21;;;;;;;16.08;11.65;;;25.30;60.50;;;;;;5011725;28;20030;-65
2022/08/17 01:00:48;;;;;;;13.82;11.48;;;25.30;60.50;;;;;;5012618;28;20041;-65
2022/08/17 01:03:20;;;;;;;14.98;12.00;;;25.30;60.60;;;;;;5028267;28;20029;-65
2022/08/17 01:05:49;;;;;;;13.20;11.25;;;25.30;60.60;;;;;;5015527;28;20049;-65
2022/08/17 01:08:18;;;;;;;14.57;11.88;;;25.30;60.70;;;;;;5036355;28;20053;-65
2022/08/17 01:10:52;;;;;;;14.98;12.20;;;25.30;60.70;;;;;;5004047;28;20034;-65
2022/08/17 01:13:19;;;;;;;13.63;12.07;;;25.30;60.70;;;;;;5027315;28;20073;-65
2022/08/17 01:16:01;;;;;;;13.40;12.00;;;25.30;60.70;;;;;;5021124;28;20041;-64
2022/08/17 01:18:27;;;;;;;13.07;11.30;;;25.30;60.80;;;;;;5020408;28;20446;-65
2022/08/17 01:20:57;;;;;;;13.57;11.75;;;25.20;60.80;;;;;;5016064;28;20168;-65
2022/08/17 01:23:26;;;;;;;12.40;11.10;;;25.20;60.90;;;;;;5023532;28;20022;-65
2022/08/17 01:25:55;;;;;;;12.98;11.57;;;25.20;60.90;;;;;;5011611;28;20044;-65
2022/08/17 01:28:23;;;;;;;14.60;13.10;;;25.20;60.90;;;;;;5034126;28;20419;-65
2022/08/17 01:30:50;;;;;;;15.52;12.57;;;25.20;60.90;;;;;;5026902;28;20038;-65
2022/08/17 01:33:15;;;;;;;14.77;11.50;;;25.20;60.90;;;;;;5015666;28;20061;-65
2022/08/17 01:35:41;;;;;;;13.38;11.98;;;25.20;61.00;;;;;;5026202;28;20058;-65
2022/08/17 01:38:08;;;;;;;13.40;11.77;;;25.10;60.90;;;;;;5030443;28;20026;-64
2022/08/17 01:40:48;;;;;;;14.60;12.07;;;25.20;61.00;;;;;;5031846;28;20025;-65
2022/08/17 01:43:21;;;;;;;15.85;11.88;;;25.10;61.00;;;;;;5008167;28;20061;-65
2022/08/17 01:45:50;;;;;;;14.88;11.93;;;25.10;61.00;;;;;;5024399;28;20088;-64
2022/08/17 01:48:15;;;;;;;13.02;11.55;;;25.10;61.10;;;;;;5032987;28;20030;-64
2022/08/17 01:50:43;;;;;;;14.05;11.85;;;25.10;61.10;;;;;;5024511;28;20100;-65
2022/08/17 01:53:17;;;;;;;13.32;11.65;;;25.10;61.10;;;;;;5007967;28;20030;-64
2022/08/17 01:55:56;;;;;;;14.20;12.52;;;25.10;61.10;;;;;;5013727;28;20022;-65
2022/08/17 01:58:22;;;;;;;14.93;12.73;;;25.10;61.10;;;;;;5030766;28;20025;-65
2022/08/17 02:00:52;;;;;;;13.82;12.25;;;25.00;61.10;;;;;;5025837;28;20038;-64
2022/08/17 02:03:18;;;;;;;14.52;12.73;;;25.00;61.10;;;;;;5016092;28;20076;-64
2022/08/17 02:05:47;;;;;;;14.00;11.55;;;25.00;61.10;;;;;;5018229;28;21246;-64
2022/08/17 02:08:14;;;;;;;14.35;12.27;;;25.00;61.20;;;;;;5029753;28;20113;-65
2022/08/17 02:10:40;;;;;;;14.20;12.35;;;25.00;61.30;;;;;;5026248;28;20232;-65
2022/08/17 02:13:05;;;;;;;14.75;11.98;;;24.90;61.30;;;;;;5029811;28;20049;-64
2022/08/17 02:15:32;;;;;;;14.23;12.50;;;25.00;61.40;;;;;;5034225;28;20087;-65
2022/08/17 02:17:57;;;;;;;13.57;11.77;;;24.90;61.40;;;;;;5016731;28;20426;-65
2022/08/17 02:20:23;;;;;;;14.30;12.10;;;24.90;61.50;;;;;;5022032;28;20017;-65
2022/08/17 02:22:49;;;;;;;13.40;11.93;;;24.90;61.60;;;;;;5018286;28;20136;-65
2022/08/17 02:25:18;;;;;;;13.70;12.02;;;24.90;61.70;;;;;;5015142;28;20038;-65
2022/08/17 02:27:49;;;;;;;14.68;12.00;;;24.90;61.80;;;;;;5011060;28;20467;-65
2022/08/17 02:30:16;;;;;;;14.40;12.00;;;24.80;61.80;;;;;;5008866;28;20025;-65
2022/08/17 02:32:42;;;;;;;14.25;11.93;;;24.80;61.80;;;;;;5005020;28;20026;-65
2022/08/17 02:35:08;;;;;;;12.90;11.60;;;24.80;61.90;;;;;;5006821;28;20029;-65
2022/08/17 02:37:34;;;;;;;15.88;12.02;;;24.80;61.80;;;;;;5013960;28;20040;-65
2022/08/17 02:40:00;;;;;;;15.52;12.88;;;24.80;61.90;;;;;;5022430;28;20061;-65
2022/08/17 02:42:38;;;;;;;13.82;12.25;;;24.80;61.90;;;;;;5015826;28;20049;-64
2022/08/17 02:45:07;;;;;;;12.60;11.15;;;24.70;61.90;;;;;;5019162;28;20036;-64
2022/08/17 02:47:33;;;;;;;14.15;12.02;;;24.70;62.00;;;;;;5012075;28;20033;-64
2022/08/17 02:49:59;;;;;;;15.57;12.65;;;24.70;62.10;;;;;;5007404;28;20026;-64
2022/08/17 02:52:26;;;;;;;14.75;13.23;;;24.60;62.20;;;;;;5008789;28;20025;-65
2022/08/17 02:54:52;;;;;;;15.63;12.95;;;24.60;62.20;;;;;;5007521;28;20469;-65
2022/08/17 02:57:18;;;;;;;16.23;12.73;;;24.60;62.20;;;;;;5007335;28;20026;-64
2022/08/17 02:59:44;;;;;;;15.70;13.77;;;24.60;62.20;;;;;;5011204;28;20113;-65
2022/08/17 03:02:10;;;;;;;15.45;13.38;;;24.60;62.20;;;;;;5014387;28;20458;-64
2022/08/17 03:04:37;;;;;;;15.07;13.48;;;24.60;62.20;;;;;;5006046;28;20487;-65
2022/08/17 03:07:04;;;;;;;16.02;12.35;;;24.60;62.20;;;;;;5012672;28;20014;-64
2022/08/17 03:09:30;;;;;;;17.67;13.35;;;24.60;62.20;;;;;;5009048;28;20471;-64
2022/08/17 03:12:11;;;;;;;16.60;13.68;;;24.60;62.20;;;;;;5010722;28;20088;-64
2022/08/17 03:14:41;;;;;;;15.45;12.75;;;24.60;62.10;;;;;;5010560;28;20045;-64
2022/08/17 03:17:08;;;;;;;13.98;12.20;;;24.60;62.10;;;;;;4998697;28;20043;-64
2022/08/17 03:19:34;;;;;;;14.07;12.25;;;24.60;62.10;;;;;;5011484;28;20054;-64
2022/08/17 03:22:00;;;;;;;14.27;12.70;;;24.50;62.10;;;;;;5013740;28;20053;-64
2022/08/17 03:24:25;;;;;;;13.77;11.65;;;24.50;62.10;;;;;;5016172;28;20034;-64
2022/08/17 03:26:51;;;;;;;14.93;12.77;;;24.50;62.10;;;;;;5007617;28;20117;-64
2022/08/17 03:29:18;;;;;;;14.98;13.00;;;24.50;62.30;;;;;;4998006;28;20224;-65
2022/08/17 03:31:45;;;;;;;16.67;14.00;;;24.50;62.30;;;;;;5013747;28;20332;-64
2022/08/17 03:34:12;;;;;;;16.80;13.10;;;24.50;62.40;;;;;;5016259;28;20026;-65
2022/08/17 03:36:38;;;;;;;15.68;13.98;;;24.50;62.40;;;;;;5014304;28;20041;-66
2022/08/17 03:39:04;;;;;;;16.52;13.27;;;24.50;62.50;;;;;;5015515;28;20038;-64
2022/08/17 03:41:29;;;;;;;16.38;14.25;;;24.50;62.50;;;;;;5009073;28;20026;-65
2022/08/17 03:43:55;;;;;;;16.48;13.80;;;24.50;62.60;;;;;;5011285;28;20030;-64
2022/08/17 03:57:27;;;;;;;15.15;13.30;;;24.40;63.00;;;;;;5015442;28;20113;-65
2022/08/17 03:59:54;;;;;;;16.98;13.45;;;24.40;63.10;;;;;;5015785;28;20037;-64
2022/08/17 04:02:29;;;;;;;15.77;12.55;;;24.50;63.20;;;;;;5010908;28;20096;-65
2022/08/17 04:04:55;;;;;;;16.40;13.23;;;24.50;63.20;;;;;;5011443;28;20037;-65
2022/08/17 04:07:23;;;;;;;13.65;12.18;;;24.50;63.10;;;;;;4989622;28;20362;-65
2022/08/17 04:09:49;;;;;;;14.50;12.50;;;24.50;63.00;;;;;;5013900;28;20030;-65
2022/08/17 04:12:17;;;;;;;15.38;12.20;;;24.50;62.90;;;;;;5011658;28;20092;-64
2022/08/17 04:14:43;;;;;;;13.82;12.30;;;24.50;62.70;;;;;;5035455;28;20044;-64
2022/08/17 04:17:09;;;;;;;15.27;12.02;;;24.50;62.50;;;;;;5019498;28;20120;-64
2022/08/17 04:19:34;;;;;;;14.63;11.40;;;24.50;62.30;;;;;;5027482;28;20113;-64
2022/08/17 04:22:00;;;;;;;16.05;11.82;;;24.50;62.10;;;;;;5019421;28;20057;-64
2022/08/17 04:24:26;;;;;;;15.30;11.00;;;24.50;62.00;;;;;;5030057;28;20033;-65
2022/08/17 04:26:52;;;;;;;14.75;11.05;;;24.50;61.80;;;;;;5021192;28;20041;-64
2022/08/17 04:29:18;;;;;;;13.65;11.05;;;24.50;61.60;;;;;;5016883;28;20172;-64
2022/08/17 04:31:44;;;;;;;12.55;11.25;;;24.50;61.40;;;;;;5020020;28;20029;-64
2022/08/17 04:34:11;;;;;;;11.93;10.25;;;24.50;61.20;;;;;;5024169;28;20120;-64
2022/08/17 04:36:37;;;;;;;12.32;9.93;;;24.50;61.00;;;;;;5028924;28;20463;-64
2022/08/17 04:39:03;;;;;;;13.57;10.48;;;24.50;60.90;;;;;;5020662;28;20032;-64
2022/08/17 04:44:13;;;;;;;14.23;10.10;;;24.50;60.60;;;;;;5021829;28;20025;-64
2022/08/17 04:46:39;;;;;;;13.77;10.07;;;24.50;60.50;;;;;;5036887;28;20044;-64
2022/08/17 04:49:08;;;;;;;13.10;9.80;;;24.60;60.50;;;;;;5036485;28;20025;-64
2022/08/17 04:51:45;;;;;;;12.88;11.30;;;24.50;60.30;;;;;;5029426;28;20038;-63
2022/08/17 04:54:15;;;;;;;12.73;10.48;;;24.60;60.90;;;;;;5032035;28;20022;-64
2022/08/17 04:56:41;;;;;;;12.10;10.27;;;24.50;60.20;;;;;;5008582;28;20092;-64
2022/08/17 04:59:18;;;;;;;12.77;10.57;;;24.50;60.10;;;;;;5032649;28;20339;-64
2022/08/17 05:01:46;;;;;;;13.77;11.13;;;24.50;60.00;;;;;;5028163;28;20100;-64
2022/08/17 05:04:16;;;;;;;13.13;10.82;;;24.50;60.00;;;;;;5016669;28;20045;-64
2022/08/17 05:06:42;;;;;;;12.32;10.45;;;24.50;60.00;;;;;;5027555;28;20351;-64
2022/08/17 05:09:08;;;;;;;15.02;11.25;;;24.60;60.00;;;;;;5035938;28;20091;-63
2022/08/17 05:11:34;;;;;;;11.93;10.30;;;24.50;59.90;;;;;;5036033;28;20393;-64
2022/08/17 05:14:00;;;;;;;12.27;10.30;;;24.60;59.90;;;;;;5028021;28;20074;-63
2022/08/17 05:16:27;;;;;;;12.93;10.48;;;24.60;59.80;;;;;;5034369;28;20025;-64
2022/08/17 05:18:53;;;;;;;13.02;9.93;;;24.60;59.70;;;;;;5035608;28;20454;-64
2022/08/17 05:21:19;;;;;;;12.88;9.80;;;24.60;59.70;;;;;;5024942;28;20038;-64
2022/08/17 05:23:45;;;;;;;15.38;10.25;;;24.60;59.80;;;;;;5009120;28;20046;-64
2022/08/17 05:26:13;;;;;;;11.32;9.73;;;24.60;59.70;;;;;;5027502;28;20029;-64
2022/08/17 05:28:38;;;;;;;11.70;9.65;;;24.70;59.70;;;;;;4989783;28;20038;-64
2022/08/17 05:31:04;;;;;;;12.73;11.05;;;24.70;59.70;;;;;;5022207;28;20083;-65
2022/08/17 05:33:33;;;;;;;14.45;11.02;;;24.70;59.70;;;;;;5007488;28;20375;-64
2022/08/17 05:36:00;;;;;;;12.75;11.23;;;24.70;59.70;;;;;;5006350;28;20026;-63
2022/08/17 05:38:28;;;;;;;13.98;12.25;;;24.70;59.80;;;;;;5012920;28;20104;-64
2022/08/17 05:40:54;;;;;;;14.10;11.57;;;24.70;59.90;;;;;;5019565;28;20041;-64
2022/08/17 05:43:29;;;;;;;13.00;11.48;;;24.60;59.90;;;;;;5023971;28;20096;-64
2022/08/17 05:45:55;;;;;;;12.48;10.48;;;24.60;60.00;;;;;;5012299;28;20041;-64
2022/08/17 05:48:21;;;;;;;17.92;12.65;;;24.60;60.00;;;;;;5015112;28;20030;-64
2022/08/17 05:50:58;;;;;;;13.18;11.15;;;24.70;60.00;;;;;;5021172;28;20040;-64
2022/08/17 05:53:45;;;;;;;16.10;11.90;;;24.60;60.00;;;;;;5011790;28;20022;-64
2022/08/17 05:56:32;;;;;;;13.65;10.88;;;24.60;60.10;;;;;;5003053;28;20026;-64
2022/08/17 05:59:16;;;;;;;15.23;12.32;;;24.60;60.30;;;;;;5017436;28;20034;-64
2022/08/17 06:01:50;;;;;;;15.90;10.57;;;24.60;60.30;;;;;;5008096;28;20066;-64
2022/08/17 06:04:25;;;;;;;17.23;11.80;;;24.60;60.40;;;;;;5022046;28;20410;-65
2022/08/17 06:06:53;;;;;;;16.13;12.45;;;24.50;60.40;;;;;;5011130;28;20459;-64
2022/08/17 06:09:28;;;;;;;14.73;11.88;;;24.50;60.50;;;;;;5011001;28;20490;-64
2022/08/17 06:12:14;;;;;;;15.43;12.05;;;24.50;60.50;;;;;;5020308;28;20133;-64
2022/08/17 06:15:22;;;;;;;15.95;11.57;;;24.60;60.60;;;;;;5017696;28;20459;-64
2022/08/17 06:17:52;;;;;;;14.77;11.35;;;24.60;60.60;;;;;;5029808;28;20093;-64
2022/08/17 06:20:17;;;;;;;15.82;11.75;;;24.60;60.70;;;;;;5021495;28;20045;-64
2022/08/17 06:22:48;;;;;;;16.05;11.90;;;24.70;60.80;;;;;;4994486;28;20030;-64
2022/08/17 06:25:27;;;;;;;15.50;12.63;;;24.70;60.70;;;;;;5016382;28;20030;-64
2022/08/17 06:27:58;;;;;;;15.65;11.70;;;24.70;60.80;;;;;;5018837;28;20034;-64
2022/08/17 06:30:31;;;;;;;14.98;12.30;;;24.70;60.80;;;;;;5013191;28;20108;-64
2022/08/17 06:33:04;;;;;;;13.07;11.38;;;24.70;61.00;;;;;;5013956;28;20034;-64
2022/08/17 06:35:39;;;;;;;17.77;12.52;;;24.70;61.10;;;;;;5014638;28;20038;-63
2022/08/17 06:38:14;;;;;;;17.27;12.18;;;24.70;61.20;;;;;;5025189;28;20104;-64
2022/08/17 06:41:04;;;;;;;14.45;12.77;;;24.70;61.20;;;;;;5026708;28;20042;-63
2022/08/17 06:43:46;;;;;;;15.98;12.65;;;24.70;61.40;;;;;;5014997;28;20026;-63
2022/08/17 06:46:34;;;;;;;15.75;13.23;;;24.80;61.50;;;;;;5011291;28;20393;-63
2022/08/17 06:49:15;;;;;;;15.25;12.75;;;24.90;61.40;;;;;;5009644;28;20362;-64
2022/08/17 06:51:50;;;;;;;18.92;13.95;;;25.00;61.20;;;;;;5018512;28;20121;-64
2022/08/17 06:54:32;;;;;;;15.85;12.90;;;25.10;61.30;;;;;;5017863;28;20019;-64
2022/08/17 06:57:12;;;;;;;14.73;12.60;;;25.10;61.30;;;;;;5006990;28;20351;-63
2022/08/17 06:59:53;;;;;;;15.38;13.07;;;25.10;61.50;;;;;;5013944;28;20053;-64
2022/08/17 07:02:36;;;;;;;15.00;13.20;;;25.10;61.70;;;;;;5012418;28;20033;-67
2022/08/17 07:05:02;;;;;;;18.23;14.57;;;25.10;62.00;;;;;;5018275;28;20034;-64
2022/08/17 07:10:15;;;;;;;15.57;13.70;;;25.10;62.30;;;;;;5019292;28;20077;-63
2022/08/17 07:12:43;;;;;;;18.50;15.35;;;25.20;62.40;;;;;;5002514;28;20046;-67
2022/08/17 07:15:23;;;;;;;16.42;14.45;;;25.10;62.60;;;;;;5023607;28;20075;-64
2022/08/17 07:17:49;;;;;;;17.23;15.02;;;25.10;62.90;;;;;;5021808;28;20030;-64
2022/08/17 07:20:21;;;;;;;18.02;15.70;;;25.10;63.20;;;;;;5016567;28;20097;-63
2022/08/17 07:23:17;;;;;;;17.98;16.10;;;24.90;64.10;;;;;;5002521;28;20516;-63
2022/08/17 07:25:43;;;;;;;17.02;14.98;;;24.90;65.10;;;;;;4996006;28;20033;-63
2022/08/17 07:28:09;;;;;;;19.05;17.05;;;24.90;65.60;;;;;;5019070;28;20370;-63
2022/08/17 07:30:39;;;;;;;18.50;16.52;;;24.80;66.10;;;;;;5032730;28;20025;-63
2022/08/17 07:33:13;;;;;;;17.73;15.83;;;24.80;66.70;;;;;;5016581;28;20019;-63
2022/08/17 07:35:41;;;;;;;19.10;17.08;;;24.80;66.90;;;;;;5019694;28;20741;-64
2022/08/17 07:38:27;;;;;;;21.75;17.70;;;24.70;67.00;;;;;;5011964;28;20113;-64
2022/08/17 07:41:01;;;;;;;21.60;16.83;;;24.80;67.40;;;;;;5013276;28;20041;-64
2022/08/17 07:43:36;;;;;;;19.60;17.35;;;24.80;67.50;;;;;;5009622;28;20048;-64
2022/08/17 07:49:06;;;;;;;22.33;20.02;;;24.80;67.90;;;;;;5009292;28;20048;-64
2022/08/17 07:51:52;;;;;;;42.10;37.95;;;24.80;68.10;;;;;;5012516;28;20030;-64
2022/08/17 07:54:22;;;;;;;64.13;57.75;;;24.80;68.10;;;;;;5008456;28;20040;-64
2022/08/17 07:56:57;;;;;;;41.83;37.65;;;24.80;68.30;;;;;;5008804;28;20029;-64
2022/08/17 07:59:24;;;;;;;31.23;28.00;;;24.80;68.50;;;;;;5012082;28;20029;-64
2022/08/17 08:02:05;;;;;;;26.15;23.45;;;24.80;68.60;;;;;;5009465;28;20040;-64
2022/08/17 08:04:41;;;;;;;;;;;24.80;68.80;;;;;;5008196;28;20042;-66
2022/08/17 08:07:23;;;;;;;21.10;18.75;;;24.80;68.40;;;;;;5011925;28;20008;-64
2022/08/17 08:10:06;;;;;;;22.58;19.60;;;24.70;68.50;;;;;;5017037;28;20041;-64
2022/08/17 08:12:39;;;;;;;19.67;17.70;;;24.80;68.80;;;;;;5008276;28;20431;-65
2022/08/17 08:15:24;;;;;;;20.17;18.00;;;24.70;69.00;;;;;;5014926;28;20025;-64
2022/08/17 08:18:01;;;;;;;21.23;18.00;;;24.80;68.90;;;;;;5017045;28;20037;-64
2022/08/17 08:20:54;;;;;;;20.70;18.33;;;24.80;68.70;;;;;;5012479;28;20081;-64
2022/08/17 08:23:40;;;;;;;19.80;17.60;;;24.80;68.80;;;;;;5005394;28;20189;-64
2022/08/17 08:27:01;;;;;;;19.73;17.70;;;24.80;68.90;;;;;;5014268;28;20398;-63
2022/08/17 08:29:53;;;;;;;20.55;17.25;;;24.90;68.70;;;;;;4962669;28;20221;-64
2022/08/17 08:32:46;;;;;;;19.90;17.63;;;25.00;68.40;;;;;;4951328;28;20133;-64
2022/08/17 08:35:25;;;;;;;21.05;17.67;;;25.20;68.20;;;;;;4975060;28;20047;-63
2022/08/17 08:38:00;;;;;;;18.95;16.95;;;25.30;67.60;;;;;;4981493;28;20041;-64
2022/08/17 08:40:46;;;;;;;19.17;17.10;;;25.50;67.20;;;;;;4989391;28;20126;-63
2022/08/17 08:43:39;;;;;;;20.75;16.88;;;25.60;66.70;;;;;;4981776;28;20046;-64
2022/08/17 08:46:13;;;;;;;18.10;15.32;;;25.80;66.30;;;;;;4980006;28;20030;-64
2022/08/17 08:49:17;;;;;;;18.92;17.00;;;25.90;66.10;;;;;;4971505;28;20043;-64
2022/08/17 08:51:54;;;;;;;17.77;15.90;;;26.00;66.00;;;;;;4969078;28;20038;-65
2022/08/17 08:54:32;;;;;;;19.55;16.00;;;26.00;65.90;;;;;;4949872;28;20050;-65
2022/08/17 08:57:03;;;;;;;17.67;15.45;;;26.00;65.80;;;;;;4968878;28;20039;-65
2022/08/17 08:59:33;;;;;;;;;;;26.00;65.40;;;;;;4963132;28;20464;-65
2022/08/17 09:02:10;;;;;;;18.90;15.60;;;26.00;65.30;;;;;;4970683;28;19978;-64
2022/08/17 09:04:48;;;;;;;19.23;15.25;;;26.00;65.30;;;;;;4956667;28;20031;-65
2022/08/17 09:07:43;;;;;;;19.27;16.98;;;25.90;64.90;;;;;;5002118;28;20071;-70
2022/08/17 09:10:19;;;;;;;19.00;16.95;;;26.00;64.60;;;;;;5011041;28;20530;-71
2022/08/17 09:12:52;;;;;;;18.63;16.73;;;25.90;64.20;;;;;;5006232;28;20121;-65
2022/08/17 09:15:26;;;;;;;18.55;16.45;;;25.90;64.00;;;;;;5010888;28;20117;-65
2022/08/17 09:18:00;;;;;;;20.30;16.67;;;25.90;63.90;;;;;;5007390;28;20029;-65
2022/08/17 09:20:32;;;;;;;19.10;14.27;;;25.90;63.90;;;;;;5009812;28;20511;-65
2022/08/17 09:23:33;;;;;;;16.98;14.75;;;25.90;63.80;;;;;;5010627;28;20427;-65
2022/08/17 09:26:15;;;;;;;17.23;15.03;;;25.90;63.80;;;;;;5000625;28;20042;-65
2022/08/17 09:28:47;;;;;;;18.15;15.15;;;26.00;63.60;;;;;;5011206;28;20296;-66
2022/08/17 09:31:34;;;;;;;17.83;14.48;;;26.10;63.40;;;;;;5009697;28;20038;-65
2022/08/17 09:34:04;;;;;;;16.90;13.73;;;26.10;63.30;;;;;;5007696;28;20311;-66
2022/08/17 09:36:48;;;;;;;17.35;13.93;;;26.20;63.30;;;;;;5011853;28;20347;-66
2022/08/17 09:39:24;;;;;;;14.63;12.18;;;26.40;63.10;;;;;;5012738;28;20133;-65
2022/08/17 09:42:05;;;;;;;15.48;13.13;;;26.60;62.80;;;;;;5010005;28;20079;-65
2022/08/17 09:44:54;;;;;;;15.82;13.30;;;26.70;62.70;;;;;;5013196;28;20112;-66
2022/08/17 09:47:40;;;;;;;14.52;12.68;;;26.70;62.40;;;;;;5019165;28;20045;-67
2022/08/17 09:50:20;;;;;;;14.00;12.50;;;26.70;62.50;;;;;;5012125;28;20095;-68
2022/08/17 09:52:49;;;;;;;13.85;11.57;;;26.70;62.30;;;;;;5013018;28;20061;-67
2022/08/17 09:55:14;;;;;;;13.45;12.00;;;26.70;62.40;;;;;;5001456;28;20041;-67
2022/08/17 09:57:52;;;;;;;15.23;13.13;;;26.80;62.20;;;;;;5007169;28;20463;-65
2022/08/17 10:00:28;;;;;;;16.45;14.68;;;26.80;61.60;;;;;;5010454;28;20092;-65
2022/08/17 10:03:18;;;;;;;15.32;12.65;;;26.80;61.30;;;;;;5007164;28;20133;-64
2022/08/17 10:05:59;;;;;;;13.48;11.48;;;26.80;61.30;;;;;;5026166;28;20033;-64
2022/08/17 10:08:28;;;;;;;13.40;11.93;;;26.80;61.50;;;;;;5009020;28;20037;-63
2022/08/17 10:14:39;;;;;;;15.23;12.02;;;26.90;61.30;;;;;;5003860;28;20071;-64
2022/08/17 10:17:25;;;;;;;15.13;12.73;;;26.90;61.20;;;;;;5000135;28;20113;-64
2022/08/17 10:20:05;;;;;;;13.80;12.27;;;26.80;60.90;;;;;;5006683;28;20042;-63
2022/08/17 10:28:38;;;;;;;15.73;12.70;;;26.80;61.20;;;;;;4988112;28;20101;-64
2022/08/17 10:31:08;;;;;;;14.75;12.05;;;26.80;61.10;;;;;;4988713;28;20136;-64
2022/08/17 10:34:12;;;;;;;14.70;13.15;;;26.80;61.60;;;;;;4988571;28;20041;-64
2022/08/17 10:36:57;;;;;;;14.52;12.43;;;26.80;61.30;;;;;;4972042;28;20053;-63
2022/08/17 10:39:44;;;;;;;15.68;14.05;;;26.70;61.40;;;;;;4980312;28;20475;-64
2022/08/17 10:42:31;;;;;;;15.35;12.93;;;26.80;61.10;;;;;;4987323;28;20038;-65
2022/08/17 10:45:25;;;;;;;14.32;12.32;;;26.80;61.20;;;;;;4984995;28;20038;-64
2022/08/17 10:48:24;;;;;;;15.45;12.52;;;26.70;61.20;;;;;;4984637;28;20129;-64
2022/08/17 10:50:58;;;;;;;17.50;13.02;;;26.70;61.20;;;;;;4989028;28;20439;-63
2022/08/17 10:53:39;;;;;;;15.32;12.95;;;26.60;61.10;;;;;;4985844;28;20030;-64
2022/08/17 10:56:10;;;;;;;;;;;26.60;61.10;;;;;;4988714;28;20116;-64
2022/08/17 10:58:37;;;;;;;;;;;26.50;61.20;;;;;;4971935;28;21163;-68
2022/08/17 11:01:03;;;;;;;14.15;11.65;;;26.40;61.40;;;;;;4956660;28;19917;-67
2022/08/17 11:03:31;;;;;;;13.32;11.93;;;26.30;61.70;;;;;;5008946;28;20070;-64
2022/08/17 11:06:03;;;;;;;15.68;13.18;;;26.20;61.70;;;;;;5010194;28;20029;-64
2022/08/17 11:08:46;;;;;;;14.77;12.93;;;26.20;61.70;;;;;;5006922;28;20032;-64
2022/08/17 11:11:18;;;;;;;14.77;12.55;;;26.20;62.00;;;;;;5007899;28;20038;-64
2022/08/17 11:13:55;;;;;;;15.15;12.93;;;26.20;62.40;;;;;;5007275;28;20100;-64
2022/08/17 11:16:23;;;;;;;14.68;12.93;;;26.10;62.90;;;;;;5011530;28;20040;-64
2022/08/17 11:19:13;;;;;;;16.38;12.80;;;26.10;63.30;;;;;;5009323;28;20065;-65
2022/08/17 11:22:15;;;;;;;15.57;13.57;;;26.00;63.70;;;;;;5011979;28;20118;-64
2022/08/17 11:24:47;;;;;;;14.95;13.15;;;25.90;64.10;;;;;;5011217;28;20454;-65
2022/08/17 11:27:27;;;;;;;18.42;14.93;;;25.80;64.60;;;;;;5008672;28;20061;-65
2022/08/17 11:29:57;;;;;;;17.00;15.05;;;25.80;65.30;;;;;;5003149;28;20049;-65
2022/08/17 11:32:46;;;;;;;18.13;14.88;;;25.70;65.70;;;;;;5004983;28;20095;-66
2022/08/17 11:35:20;;;;;;;17.30;15.38;;;25.70;66.10;;;;;;5007682;28;20439;-65
2022/08/17 11:38:09;;;;;;;19.52;16.63;;;25.60;66.60;;;;;;5011217;28;20038;-66
2022/08/17 11:40:41;;;;;;;18.23;16.25;;;25.60;67.10;;;;;;5010693;28;20049;-65
2022/08/17 11:43:22;;;;;;;17.80;15.70;;;25.50;67.40;;;;;;5012665;28;20034;-64
2022/08/17 11:45:55;;;;;;;18.98;16.92;;;25.40;68.00;;;;;;5012412;28;20040;-64
2022/08/17 11:51:34;;;;;;;22.55;19.35;;;25.40;68.50;;;;;;5025925;28;20467;-64
2022/08/17 11:54:05;;;;;;;19.75;17.75;;;25.40;68.60;;;;;;5012096;28;20036;-65
2022/08/17 11:56:50;;;;;;;19.27;16.73;;;25.30;68.90;;;;;;5012543;28;20111;-65
2022/08/17 11:59:45;;;;;;;23.45;17.15;;;25.30;69.10;;;;;;5025461;28;20336;-65
2022/08/17 12:02:33;;;;;;;19.85;17.52;;;25.30;69.30;;;;;;5021691;28;20053;-65
2022/08/17 12:05:26;;;;;;;19.80;17.40;;;25.20;69.40;;;;;;5012248;28;20057;-64
2022/08/17 12:08:14;;;;;;;19.67;17.67;;;25.30;69.60;;;;;;5009843;28;20454;-65
2022/08/17 12:10:55;;;;;;;18.73;16.65;;;25.20;70.00;;;;;;5010759;28;20160;-64
2022/08/17 12:13:23;;;;;;;19.95;17.85;;;25.30;70.30;;;;;;5013957;28;20054;-64
2022/08/17 12:15:51;;;;;;;19.60;17.48;;;25.20;70.30;;;;;;5011411;28;20049;-64
2022/08/17 12:18:19;;;;;;;20.15;18.10;;;25.20;70.50;;;;;;5014392;28;20049;-64
2022/08/17 12:21:02;;;;;;;19.38;17.27;;;25.10;70.80;;;;;;5011006;28;20506;-64
2022/08/17 12:23:49;;;;;;;19.27;17.25;;;25.10;71.00;;;;;;5012184;28;20033;-64
2022/08/17 12:26:21;;;;;;;19.73;17.10;;;25.00;71.10;;;;;;5010407;28;20095;-64
2022/08/17 12:28:50;;;;;;;20.63;18.42;;;25.00;71.50;;;;;;5011919;28;20085;-64
2022/08/17 12:31:29;;;;;;;18.92;16.95;;;24.90;71.50;;;;;;5009090;28;20030;-64
2022/08/17 12:33:55;;;;;;;20.13;16.90;;;24.90;71.80;;;;;;5009379;28;20041;-64
2022/08/17 12:36:25;;;;;;;19.20;17.23;;;24.80;71.70;;;;;;5011741;28;20403;-64
2022/08/17 12:38:58;;;;;;;19.25;16.73;;;24.80;71.90;;;;;;5014300;28;20355;-64
2022/08/17 12:41:47;;;;;;;19.25;16.95;;;24.80;72.80;;;;;;5010889;28;20026;-64
2022/08/17 12:44:18;;;;;;;18.70;16.77;;;24.80;72.10;;;;;;5013325;28;20109;-64
2022/08/17 12:46:57;;;;;;;18.15;16.30;;;24.80;72.30;;;;;;5013448;28;20365;-65
2022/08/17 12:49:30;;;;;;;18.92;16.92;;;24.70;72.50;;;;;;5012589;28;20454;-64
2022/08/17 12:52:08;;;;;;;20.50;18.38;;;24.70;72.80;;;;;;5013593;28;20176;-64
2022/08/17 12:54:47;;;;;;;17.80;15.82;;;24.80;72.90;;;;;;5007561;28;20027;-64
2022/08/17 12:57:16;;;;;;;19.55;16.70;;;24.80;72.80;;;;;;5010757;28;20029;-63
2022/08/17 12:59:47;;;;;;;18.67;16.67;;;24.90;72.80;;;;;;5010365;28;20026;-63
2022/08/17 13:02:30;;;;;;;19.48;17.48;;;24.90;73.00;;;;;;5008806;28;20119;-63
2022/08/17 13:04:59;;;;;;;19.30;17.40;;;24.90;73.10;;;;;;5023327;28;20109;-63
2022/08/17 13:07:28;;;;;;;20.05;17.95;;;25.00;73.20;;;;;;5008788;28;20037;-63
2022/08/17 13:09:53;;;;;;;20.50;18.40;;;25.00;72.90;;;;;;5005259;28;20355;-63
2022/08/17 13:12:26;;;;;;;20.80;18.70;;;24.90;72.90;;;;;;5010665;28;20033;-63
2022/08/17 13:14:51;;;;;;;20.77;18.52;;;24.80;72.90;;;;;;5016732;28;20359;-63
2022/08/17 13:17:34;;;;;;;20.50;18.05;;;24.80;72.90;;;;;;5012090;28;21160;-63
2022/08/17 13:20:02;;;;;;;20.40;18.23;;;24.80;73.20;;;;;;5010737;28;20493;-63
2022/08/17 13:22:31;;;;;;;20.20;18.05;;;24.80;73.40;;;;;;5008512;28;20026;-63
2022/08/17 13:25:02;;;;;;;20.88;18.65;;;24.70;73.60;;;;;;5012631;28;20081;-63
2022/08/17 13:27:29;;;;;;;23.15;19.95;;;24.70;73.60;;;;;;5010796;28;20038;-63
2022/08/17 13:29:59;;;;;;;20.80;18.67;;;24.70;73.80;;;;;;5016661;28;20116;-63
2022/08/17 13:32:55;;;;;;;21.23;19.08;;;24.60;73.70;;;;;;5013599;28;20022;-64